sensor_id;sensor_type;location;lat;lon;timestamp;temperature;humidity
66962;HTU21D;53897;51.126;5.868;2022-07-05T00:01:48;28.19;43.26
66962;HTU21D;53897;51.126;5.868;2022-07-05T00:04:13;28.18;43.26
66962;HTU21D;53897;51.126;5.868;2022-07-05T00:06:39;28.17;43.26
66962;HTU21D;53897;51.126;5.868;2022-07-05T00:09:25;28.16;43.26
66962;HTU21D;53897;51.126;5.868;2022-07-05T00:11:51;28.17;43.26
66962;HTU21D;53897;51.126;5.868;2022-07-05T00:14:16;28.16;43.26
66962;HTU21D;53897;51.126;5.868;2022-07-05T00:16:42;28.15;43.27
66962;HTU21D;53897;51.126;5.868;2022-07-05T00:19:08;28.14;43.28
66962;HTU21D;53897;51.126;5.868;2022-07-05T00:21:33;28.14;43.27
66962;HTU21D;53897;51.126;5.868;2022-07-05T00:23:59;28.14;43.27
66962;HTU21D;53897;51.126;5.868;2022-07-05T00:26:25;28.14;43.27
66962;HTU21D;53897;51.126;5.868;2022-07-05T00:28:50;28.14;43.28
66962;HTU21D;53897;51.126;5.868;2022-07-05T00:31:16;28.12;43.27
66962;HTU21D;53897;51.126;5.868;2022-07-05T00:33:42;28.11;43.28
66962;HTU21D;53897;51.126;5.868;2022-07-05T00:36:08;28.11;43.28
66962;HTU21D;53897;51.126;5.868;2022-07-05T00:38:33;28.11;43.29
66962;HTU21D;53897;51.126;5.868;2022-07-05T00:40:59;28.12;43.29
66962;HTU21D;53897;51.126;5.868;2022-07-05T00:43:25;28.09;43.29
66962;HTU21D;53897;51.126;5.868;2022-07-05T00:45:50;28.09;43.30
66962;HTU21D;53897;51.126;5.868;2022-07-05T00:48:16;28.09;43.29
66962;HTU21D;53897;51.126;5.868;2022-07-05T00:50:42;28.09;43.29
66962;HTU21D;53897;51.126;5.868;2022-07-05T00:53:08;28.06;43.28
66962;HTU21D;53897;51.126;5.868;2022-07-05T00:55:34;28.09;43.30
66962;HTU21D;53897;51.126;5.868;2022-07-05T00:58:00;28.06;43.31
66962;HTU21D;53897;51.126;5.868;2022-07-05T01:00:26;28.05;43.32
66962;HTU21D;53897;51.126;5.868;2022-07-05T01:02:52;28.08;43.29
66962;HTU21D;53897;51.126;5.868;2022-07-05T01:05:18;28.06;43.32
66962;HTU21D;53897;51.126;5.868;2022-07-05T01:07:44;28.05;43.32
66962;HTU21D;53897;51.126;5.868;2022-07-05T01:10:11;28.04;43.34
66962;HTU21D;53897;51.126;5.868;2022-07-05T01:12:40;28.03;43.35
66962;HTU21D;53897;51.126;5.868;2022-07-05T01:15:07;28.04;43.36
66962;HTU21D;53897;51.126;5.868;2022-07-05T01:17:37;28.02;43.37
66962;HTU21D;53897;51.126;5.868;2022-07-05T01:20:04;28.02;43.38
66962;HTU21D;53897;51.126;5.868;2022-07-05T01:22:50;28.02;43.38
66962;HTU21D;53897;51.126;5.868;2022-07-05T01:25:18;28.00;43.37
66962;HTU21D;53897;51.126;5.868;2022-07-05T01:27:46;28.01;43.39
66962;HTU21D;53897;51.126;5.868;2022-07-05T01:30:13;27.99;43.39
66962;HTU21D;53897;51.126;5.868;2022-07-05T01:32:39;27.99;43.35
66962;HTU21D;53897;51.126;5.868;2022-07-05T01:35:05;27.99;43.34
66962;HTU21D;53897;51.126;5.868;2022-07-05T01:37:33;28.00;43.32
66962;HTU21D;53897;51.126;5.868;2022-07-05T01:40:02;27.99;43.32
66962;HTU21D;53897;51.126;5.868;2022-07-05T01:42:28;27.98;43.32
66962;HTU21D;53897;51.126;5.868;2022-07-05T01:44:53;27.97;43.32
66962;HTU21D;53897;51.126;5.868;2022-07-05T01:47:19;27.97;43.32
66962;HTU21D;53897;51.126;5.868;2022-07-05T01:49:48;27.96;43.33
66962;HTU21D;53897;51.126;5.868;2022-07-05T01:52:20;27.96;43.34
66962;HTU21D;53897;51.126;5.868;2022-07-05T01:54:47;27.96;43.34
66962;HTU21D;53897;51.126;5.868;2022-07-05T01:57:14;27.94;43.35
66962;HTU21D;53897;51.126;5.868;2022-07-05T01:59:40;27.94;43.35
66962;HTU21D;53897;51.126;5.868;2022-07-05T02:02:07;27.93;43.37
66962;HTU21D;53897;51.126;5.868;2022-07-05T02:04:35;27.93;43.36
66962;HTU21D;53897;51.126;5.868;2022-07-05T02:07:05;27.91;43.37
66962;HTU21D;53897;51.126;5.868;2022-07-05T02:09:31;27.91;43.38
66962;HTU21D;53897;51.126;5.868;2022-07-05T02:11:57;27.91;43.39
66962;HTU21D;53897;51.126;5.868;2022-07-05T02:14:23;27.90;43.38
66962;HTU21D;53897;51.126;5.868;2022-07-05T02:16:49;27.89;43.36
66962;HTU21D;53897;51.126;5.868;2022-07-05T02:19:17;27.89;43.34
66962;HTU21D;53897;51.126;5.868;2022-07-05T02:21:43;27.88;43.32
66962;HTU21D;53897;51.126;5.868;2022-07-05T02:24:14;27.88;43.32
66962;HTU21D;53897;51.126;5.868;2022-07-05T02:26:49;27.87;43.30
66962;HTU21D;53897;51.126;5.868;2022-07-05T02:29:15;27.88;43.31
66962;HTU21D;53897;51.126;5.868;2022-07-05T02:31:43;27.86;43.29
66962;HTU21D;53897;51.126;5.868;2022-07-05T02:34:09;27.87;43.29
66962;HTU21D;53897;51.126;5.868;2022-07-05T02:36:36;27.87;43.27
66962;HTU21D;53897;51.126;5.868;2022-07-05T02:39:03;27.85;43.26
66962;HTU21D;53897;51.126;5.868;2022-07-05T02:41:28;27.86;43.26
66962;HTU21D;53897;51.126;5.868;2022-07-05T02:43:54;27.84;43.28
66962;HTU21D;53897;51.126;5.868;2022-07-05T02:46:26;27.83;43.26
66962;HTU21D;53897;51.126;5.868;2022-07-05T02:48:53;27.83;43.26
66962;HTU21D;53897;51.126;5.868;2022-07-05T02:51:19;27.82;43.27
66962;HTU21D;53897;51.126;5.868;2022-07-05T02:53:48;27.83;43.26
66962;HTU21D;53897;51.126;5.868;2022-07-05T02:56:15;27.82;43.26
66962;HTU21D;53897;51.126;5.868;2022-07-05T02:58:41;27.82;43.25
66962;HTU21D;53897;51.126;5.868;2022-07-05T03:01:09;27.83;43.22
66962;HTU21D;53897;51.126;5.868;2022-07-05T03:03:37;27.81;43.22
66962;HTU21D;53897;51.126;5.868;2022-07-05T03:06:03;27.80;43.22
66962;HTU21D;53897;51.126;5.868;2022-07-05T03:08:31;27.79;43.22
66962;HTU21D;53897;51.126;5.868;2022-07-05T03:10:57;27.79;43.22
66962;HTU21D;53897;51.126;5.868;2022-07-05T03:13:23;27.79;43.23
66962;HTU21D;53897;51.126;5.868;2022-07-05T03:15:49;27.78;43.24
66962;HTU21D;53897;51.126;5.868;2022-07-05T03:18:19;27.75;43.24
66962;HTU21D;53897;51.126;5.868;2022-07-05T03:20:44;27.75;43.23
66962;HTU21D;53897;51.126;5.868;2022-07-05T03:23:10;27.76;43.22
66962;HTU21D;53897;51.126;5.868;2022-07-05T03:25:42;27.75;43.22
66962;HTU21D;53897;51.126;5.868;2022-07-05T03:28:10;27.74;43.22
66962;HTU21D;53897;51.126;5.868;2022-07-05T03:30:39;27.74;43.23
66962;HTU21D;53897;51.126;5.868;2022-07-05T03:33:05;27.74;43.22
66962;HTU21D;53897;51.126;5.868;2022-07-05T03:35:32;27.74;43.22
66962;HTU21D;53897;51.126;5.868;2022-07-05T03:37:58;27.71;43.22
66962;HTU21D;53897;51.126;5.868;2022-07-05T03:40:24;27.73;43.21
66962;HTU21D;53897;51.126;5.868;2022-07-05T03:42:50;27.71;43.19
66962;HTU21D;53897;51.126;5.868;2022-07-05T03:45:16;27.71;43.21
66962;HTU21D;53897;51.126;5.868;2022-07-05T03:47:42;27.70;43.19
66962;HTU21D;53897;51.126;5.868;2022-07-05T03:50:11;27.70;43.20
66962;HTU21D;53897;51.126;5.868;2022-07-05T03:52:38;27.69;43.19
66962;HTU21D;53897;51.126;5.868;2022-07-05T03:55:04;27.69;43.19
66962;HTU21D;53897;51.126;5.868;2022-07-05T03:57:30;27.68;43.20
66962;HTU21D;53897;51.126;5.868;2022-07-05T03:59:57;27.68;43.19
66962;HTU21D;53897;51.126;5.868;2022-07-05T04:02:23;27.67;43.19
66962;HTU21D;53897;51.126;5.868;2022-07-05T04:04:49;27.67;43.19
66962;HTU21D;53897;51.126;5.868;2022-07-05T04:07:15;27.67;43.19
66962;HTU21D;53897;51.126;5.868;2022-07-05T04:09:41;27.66;43.16
66962;HTU21D;53897;51.126;5.868;2022-07-05T04:12:08;27.66;43.16
66962;HTU21D;53897;51.126;5.868;2022-07-05T04:14:35;27.65;43.16
66962;HTU21D;53897;51.126;5.868;2022-07-05T04:17:02;27.65;43.16
66962;HTU21D;53897;51.126;5.868;2022-07-05T04:19:29;27.63;43.16
66962;HTU21D;53897;51.126;5.868;2022-07-05T04:21:56;27.64;43.15
66962;HTU21D;53897;51.126;5.868;2022-07-05T04:24:22;27.63;43.14
66962;HTU21D;53897;51.126;5.868;2022-07-05T04:26:48;27.64;43.14
66962;HTU21D;53897;51.126;5.868;2022-07-05T04:29:14;27.63;43.15
66962;HTU21D;53897;51.126;5.868;2022-07-05T04:31:39;27.61;43.15
66962;HTU21D;53897;51.126;5.868;2022-07-05T04:34:06;27.60;43.15
66962;HTU21D;53897;51.126;5.868;2022-07-05T04:36:35;27.61;43.13
66962;HTU21D;53897;51.126;5.868;2022-07-05T04:39:04;27.60;43.13
66962;HTU21D;53897;51.126;5.868;2022-07-05T04:41:31;27.61;43.13
66962;HTU21D;53897;51.126;5.868;2022-07-05T04:43:57;27.59;43.13
66962;HTU21D;53897;51.126;5.868;2022-07-05T04:46:23;27.61;43.12
66962;HTU21D;53897;51.126;5.868;2022-07-05T04:48:50;27.60;43.12
66962;HTU21D;53897;51.126;5.868;2022-07-05T04:51:17;27.59;43.13
66962;HTU21D;53897;51.126;5.868;2022-07-05T04:53:43;27.59;43.12
66962;HTU21D;53897;51.126;5.868;2022-07-05T04:56:08;27.58;43.11
66962;HTU21D;53897;51.126;5.868;2022-07-05T04:58:34;27.58;43.10
66962;HTU21D;53897;51.126;5.868;2022-07-05T05:01:00;27.58;43.10
66962;HTU21D;53897;51.126;5.868;2022-07-05T05:03:26;27.59;43.08
66962;HTU21D;53897;51.126;5.868;2022-07-05T05:05:52;27.57;43.08
66962;HTU21D;53897;51.126;5.868;2022-07-05T05:08:17;27.57;43.10
66962;HTU21D;53897;51.126;5.868;2022-07-05T05:10:43;27.57;43.10
66962;HTU21D;53897;51.126;5.868;2022-07-05T05:13:09;27.56;43.11
66962;HTU21D;53897;51.126;5.868;2022-07-05T05:15:34;27.56;43.13
66962;HTU21D;53897;51.126;5.868;2022-07-05T05:18:00;27.55;43.10
66962;HTU21D;53897;51.126;5.868;2022-07-05T05:20:26;27.55;43.11
66962;HTU21D;53897;51.126;5.868;2022-07-05T05:22:52;27.55;43.12
66962;HTU21D;53897;51.126;5.868;2022-07-05T05:25:18;27.55;43.10
66962;HTU21D;53897;51.126;5.868;2022-07-05T05:27:45;27.55;43.10
66962;HTU21D;53897;51.126;5.868;2022-07-05T05:30:11;27.54;43.11
66962;HTU21D;53897;51.126;5.868;2022-07-05T05:32:38;27.53;43.14
66962;HTU21D;53897;51.126;5.868;2022-07-05T05:35:04;27.53;43.13
66962;HTU21D;53897;51.126;5.868;2022-07-05T05:37:30;27.53;43.13
66962;HTU21D;53897;51.126;5.868;2022-07-05T05:39:56;27.53;43.11
66962;HTU21D;53897;51.126;5.868;2022-07-05T05:42:22;27.54;43.13
66962;HTU21D;53897;51.126;5.868;2022-07-05T05:44:47;27.51;43.16
66962;HTU21D;53897;51.126;5.868;2022-07-05T05:47:13;27.52;43.11
66962;HTU21D;53897;51.126;5.868;2022-07-05T05:49:39;27.52;43.16
66962;HTU21D;53897;51.126;5.868;2022-07-05T05:52:05;27.52;43.13
66962;HTU21D;53897;51.126;5.868;2022-07-05T05:54:30;27.52;43.12
66962;HTU21D;53897;51.126;5.868;2022-07-05T05:56:56;27.53;43.13
66962;HTU21D;53897;51.126;5.868;2022-07-05T05:59:22;27.52;43.10
66962;HTU21D;53897;51.126;5.868;2022-07-05T06:01:47;27.52;43.10
66962;HTU21D;53897;51.126;5.868;2022-07-05T06:04:13;27.51;43.14
66962;HTU21D;53897;51.126;5.868;2022-07-05T06:06:39;27.51;43.16
66962;HTU21D;53897;51.126;5.868;2022-07-05T06:09:04;27.52;43.20
66962;HTU21D;53897;51.126;5.868;2022-07-05T06:11:30;27.51;43.20
66962;HTU21D;53897;51.126;5.868;2022-07-05T06:13:56;27.51;43.20
66962;HTU21D;53897;51.126;5.868;2022-07-05T06:16:21;27.51;43.22
66962;HTU21D;53897;51.126;5.868;2022-07-05T06:18:47;27.50;43.21
66962;HTU21D;53897;51.126;5.868;2022-07-05T06:21:13;27.50;43.22
66962;HTU21D;53897;51.126;5.868;2022-07-05T06:23:39;27.50;43.22
66962;HTU21D;53897;51.126;5.868;2022-07-05T06:26:04;27.52;43.22
66962;HTU21D;53897;51.126;5.868;2022-07-05T06:28:30;27.50;43.21
66962;HTU21D;53897;51.126;5.868;2022-07-05T06:30:57;27.50;43.22
66962;HTU21D;53897;51.126;5.868;2022-07-05T06:33:23;27.50;43.21
66962;HTU21D;53897;51.126;5.868;2022-07-05T06:35:48;27.51;43.21
66962;HTU21D;53897;51.126;5.868;2022-07-05T06:38:14;27.49;43.18
66962;HTU21D;53897;51.126;5.868;2022-07-05T06:40:42;27.49;43.10
66962;HTU21D;53897;51.126;5.868;2022-07-05T06:43:10;27.51;43.03
66962;HTU21D;53897;51.126;5.868;2022-07-05T06:45:46;27.49;43.00
66962;HTU21D;53897;51.126;5.868;2022-07-05T06:48:13;27.51;42.93
66962;HTU21D;53897;51.126;5.868;2022-07-05T06:50:43;27.51;42.87
66962;HTU21D;53897;51.126;5.868;2022-07-05T06:53:10;27.49;42.90
66962;HTU21D;53897;51.126;5.868;2022-07-05T06:55:37;27.50;42.87
66962;HTU21D;53897;51.126;5.868;2022-07-05T06:58:05;27.51;42.81
66962;HTU21D;53897;51.126;5.868;2022-07-05T07:00:31;27.50;42.79
66962;HTU21D;53897;51.126;5.868;2022-07-05T07:02:58;27.52;42.73
66962;HTU21D;53897;51.126;5.868;2022-07-05T07:05:24;27.51;42.85
66962;HTU21D;53897;51.126;5.868;2022-07-05T07:07:51;27.51;42.92
66962;HTU21D;53897;51.126;5.868;2022-07-05T07:10:36;27.51;42.91
66962;HTU21D;53897;51.126;5.868;2022-07-05T07:13:02;27.51;43.01
66962;HTU21D;53897;51.126;5.868;2022-07-05T07:15:29;27.51;43.07
66962;HTU21D;53897;51.126;5.868;2022-07-05T07:17:56;27.52;43.11
66962;HTU21D;53897;51.126;5.868;2022-07-05T07:20:22;27.52;43.14
66962;HTU21D;53897;51.126;5.868;2022-07-05T07:22:48;27.52;43.13
66962;HTU21D;53897;51.126;5.868;2022-07-05T07:25:14;27.52;43.14
66962;HTU21D;53897;51.126;5.868;2022-07-05T07:27:47;27.53;43.16
66962;HTU21D;53897;51.126;5.868;2022-07-05T07:30:17;27.53;43.16
66962;HTU21D;53897;51.126;5.868;2022-07-05T07:32:44;27.54;43.17
66962;HTU21D;53897;51.126;5.868;2022-07-05T07:35:11;27.55;43.19
66962;HTU21D;53897;51.126;5.868;2022-07-05T07:37:37;27.56;43.19
66962;HTU21D;53897;51.126;5.868;2022-07-05T07:40:06;27.56;43.20
66962;HTU21D;53897;51.126;5.868;2022-07-05T07:42:32;27.56;43.21
66962;HTU21D;53897;51.126;5.868;2022-07-05T07:44:58;27.58;43.22
66962;HTU21D;53897;51.126;5.868;2022-07-05T07:47:30;27.58;43.22
66962;HTU21D;53897;51.126;5.868;2022-07-05T07:49:56;27.57;43.25
66962;HTU21D;53897;51.126;5.868;2022-07-05T07:52:22;27.58;43.26
66962;HTU21D;53897;51.126;5.868;2022-07-05T07:54:47;27.60;43.26
66962;HTU21D;53897;51.126;5.868;2022-07-05T07:57:13;27.60;43.29
66962;HTU21D;53897;51.126;5.868;2022-07-05T07:59:39;27.59;43.29
66962;HTU21D;53897;51.126;5.868;2022-07-05T08:02:05;27.63;43.30
66962;HTU21D;53897;51.126;5.868;2022-07-05T08:04:30;27.63;43.30
66962;HTU21D;53897;51.126;5.868;2022-07-05T08:06:56;27.65;43.31
66962;HTU21D;53897;51.126;5.868;2022-07-05T08:09:22;27.66;43.32
66962;HTU21D;53897;51.126;5.868;2022-07-05T08:11:47;27.67;43.31
66962;HTU21D;53897;51.126;5.868;2022-07-05T08:14:15;27.68;43.29
66962;HTU21D;53897;51.126;5.868;2022-07-05T08:16:42;27.69;43.29
66962;HTU21D;53897;51.126;5.868;2022-07-05T08:19:08;27.69;43.29
66962;HTU21D;53897;51.126;5.868;2022-07-05T08:21:52;27.71;43.26
66962;HTU21D;53897;51.126;5.868;2022-07-05T08:24:18;27.72;43.26
66962;HTU21D;53897;51.126;5.868;2022-07-05T08:26:44;27.73;43.24
66962;HTU21D;53897;51.126;5.868;2022-07-05T08:29:12;27.74;43.21
66962;HTU21D;53897;51.126;5.868;2022-07-05T08:31:44;27.76;43.21
66962;HTU21D;53897;51.126;5.868;2022-07-05T08:34:10;27.76;43.19
66962;HTU21D;53897;51.126;5.868;2022-07-05T08:36:36;27.78;43.17
66962;HTU21D;53897;51.126;5.868;2022-07-05T08:39:03;27.80;43.16
66962;HTU21D;53897;51.126;5.868;2022-07-05T08:41:29;27.81;43.16
66962;HTU21D;53897;51.126;5.868;2022-07-05T08:44:00;27.82;43.15
66962;HTU21D;53897;51.126;5.868;2022-07-05T08:46:30;27.84;43.13
66962;HTU21D;53897;51.126;5.868;2022-07-05T08:48:59;27.86;43.12
66962;HTU21D;53897;51.126;5.868;2022-07-05T08:51:27;27.88;43.09
66962;HTU21D;53897;51.126;5.868;2022-07-05T08:53:54;27.90;43.06
66962;HTU21D;53897;51.126;5.868;2022-07-05T08:56:24;27.91;43.03
66962;HTU21D;53897;51.126;5.868;2022-07-05T08:58:50;27.95;43.00
66962;HTU21D;53897;51.126;5.868;2022-07-05T09:01:16;27.96;43.00
66962;HTU21D;53897;51.126;5.868;2022-07-05T09:03:48;27.99;42.93
66962;HTU21D;53897;51.126;5.868;2022-07-05T09:06:25;28.00;42.92
66962;HTU21D;53897;51.126;5.868;2022-07-05T09:08:55;28.00;42.90
66962;HTU21D;53897;51.126;5.868;2022-07-05T09:11:30;28.03;42.88
66962;HTU21D;53897;51.126;5.868;2022-07-05T09:13:58;28.04;42.88
66962;HTU21D;53897;51.126;5.868;2022-07-05T09:16:24;28.06;42.87
66962;HTU21D;53897;51.126;5.868;2022-07-05T09:18:54;28.08;42.85
66962;HTU21D;53897;51.126;5.868;2022-07-05T09:21:27;28.10;42.84
66962;HTU21D;53897;51.126;5.868;2022-07-05T09:26:19;28.12;42.80
66962;HTU21D;53897;51.126;5.868;2022-07-05T09:28:56;28.14;42.77
66962;HTU21D;53897;51.126;5.868;2022-07-05T09:31:30;28.16;42.77
66962;HTU21D;53897;51.126;5.868;2022-07-05T09:34:07;28.18;42.74
66962;HTU21D;53897;51.126;5.868;2022-07-05T09:44:50;28.27;42.66
66962;HTU21D;53897;51.126;5.868;2022-07-05T09:47:17;28.28;42.64
66962;HTU21D;53897;51.126;5.868;2022-07-05T09:49:44;28.29;42.62
66962;HTU21D;53897;51.126;5.868;2022-07-05T09:52:26;28.31;42.60
66962;HTU21D;53897;51.126;5.868;2022-07-05T09:55:16;28.32;42.58
66962;HTU21D;53897;51.126;5.868;2022-07-05T09:57:43;28.33;42.57
66962;HTU21D;53897;51.126;5.868;2022-07-05T10:00:13;28.34;42.56
66962;HTU21D;53897;51.126;5.868;2022-07-05T10:02:46;28.35;42.55
66962;HTU21D;53897;51.126;5.868;2022-07-05T10:05:27;28.37;42.53
66962;HTU21D;53897;51.126;5.868;2022-07-05T10:08:01;28.39;42.52
66962;HTU21D;53897;51.126;5.868;2022-07-05T10:10:29;28.39;42.52
66962;HTU21D;53897;51.126;5.868;2022-07-05T10:13:01;28.39;42.50
66962;HTU21D;53897;51.126;5.868;2022-07-05T10:15:32;28.41;42.50
66962;HTU21D;53897;51.126;5.868;2022-07-05T10:18:07;28.42;42.49
66962;HTU21D;53897;51.126;5.868;2022-07-05T10:20:41;28.42;42.48
66962;HTU21D;53897;51.126;5.868;2022-07-05T10:23:12;28.43;42.47
66962;HTU21D;53897;51.126;5.868;2022-07-05T10:25:41;28.44;42.45
66962;HTU21D;53897;51.126;5.868;2022-07-05T10:28:08;28.45;42.45
66962;HTU21D;53897;51.126;5.868;2022-07-05T10:30:34;28.45;42.44
66962;HTU21D;53897;51.126;5.868;2022-07-05T10:33:05;28.46;42.43
66962;HTU21D;53897;51.126;5.868;2022-07-05T10:35:31;28.46;42.43
66962;HTU21D;53897;51.126;5.868;2022-07-05T10:37:58;28.47;42.43
66962;HTU21D;53897;51.126;5.868;2022-07-05T10:40:25;28.49;42.43
66962;HTU21D;53897;51.126;5.868;2022-07-05T10:42:56;28.48;42.43
66962;HTU21D;53897;51.126;5.868;2022-07-05T10:48:22;28.50;42.41
66962;HTU21D;53897;51.126;5.868;2022-07-05T10:50:54;28.49;42.39
66962;HTU21D;53897;51.126;5.868;2022-07-05T10:58:34;28.50;42.37
66962;HTU21D;53897;51.126;5.868;2022-07-05T11:03:55;28.54;42.33
66962;HTU21D;53897;51.126;5.868;2022-07-05T11:06:24;28.53;42.34
66962;HTU21D;53897;51.126;5.868;2022-07-05T11:11:28;28.52;42.36
66962;HTU21D;53897;51.126;5.868;2022-07-05T11:13:56;28.53;42.37
66962;HTU21D;53897;51.126;5.868;2022-07-05T11:16:26;28.53;42.37
66962;HTU21D;53897;51.126;5.868;2022-07-05T11:19:11;28.52;42.36
66962;HTU21D;53897;51.126;5.868;2022-07-05T11:21:39;28.53;42.36
66962;HTU21D;53897;51.126;5.868;2022-07-05T11:24:18;28.53;42.36
66962;HTU21D;53897;51.126;5.868;2022-07-05T11:26:48;28.53;42.36
66962;HTU21D;53897;51.126;5.868;2022-07-05T11:32:12;28.56;42.36
66962;HTU21D;53897;51.126;5.868;2022-07-05T11:34:40;28.56;42.37
66962;HTU21D;53897;51.126;5.868;2022-07-05T11:37:22;28.56;42.37
66962;HTU21D;53897;51.126;5.868;2022-07-05T11:42:36;28.57;42.36
66962;HTU21D;53897;51.126;5.868;2022-07-05T11:45:05;28.58;42.36
66962;HTU21D;53897;51.126;5.868;2022-07-05T11:47:31;28.58;42.36
66962;HTU21D;53897;51.126;5.868;2022-07-05T11:49:58;28.59;42.35
66962;HTU21D;53897;51.126;5.868;2022-07-05T11:52:28;28.59;42.32
66962;HTU21D;53897;51.126;5.868;2022-07-05T11:54:58;28.61;42.29
66962;HTU21D;53897;51.126;5.868;2022-07-05T11:57:25;28.62;42.28
66962;HTU21D;53897;51.126;5.868;2022-07-05T11:59:52;28.61;42.26
66962;HTU21D;53897;51.126;5.868;2022-07-05T12:02:18;28.61;42.26
66962;HTU21D;53897;51.126;5.868;2022-07-05T12:04:52;28.62;42.26
66962;HTU21D;53897;51.126;5.868;2022-07-05T12:07:28;28.62;42.27
66962;HTU21D;53897;51.126;5.868;2022-07-05T12:09:55;28.63;42.29
66962;HTU21D;53897;51.126;5.868;2022-07-05T12:12:40;28.64;42.29
66962;HTU21D;53897;51.126;5.868;2022-07-05T12:15:15;28.65;42.28
66962;HTU21D;53897;51.126;5.868;2022-07-05T12:17:45;28.67;42.29
66962;HTU21D;53897;51.126;5.868;2022-07-05T12:20:14;28.68;42.27
66962;HTU21D;53897;51.126;5.868;2022-07-05T12:22:43;28.69;42.28
66962;HTU21D;53897;51.126;5.868;2022-07-05T12:25:17;28.69;42.27
66962;HTU21D;53897;51.126;5.868;2022-07-05T12:27:46;28.70;42.27
66962;HTU21D;53897;51.126;5.868;2022-07-05T12:30:14;28.70;42.24
66962;HTU21D;53897;51.126;5.868;2022-07-05T12:32:59;28.72;42.23
66962;HTU21D;53897;51.126;5.868;2022-07-05T12:35:38;28.71;42.22
66962;HTU21D;53897;51.126;5.868;2022-07-05T12:38:24;28.73;42.20
66962;HTU21D;53897;51.126;5.868;2022-07-05T12:40:58;28.72;42.20
66962;HTU21D;53897;51.126;5.868;2022-07-05T12:43:24;28.72;42.23
66962;HTU21D;53897;51.126;5.868;2022-07-05T12:46:07;28.73;42.23
66962;HTU21D;53897;51.126;5.868;2022-07-05T12:48:35;28.75;42.23
66962;HTU21D;53897;51.126;5.868;2022-07-05T12:51:03;28.75;42.23
66962;HTU21D;53897;51.126;5.868;2022-07-05T12:53:29;28.77;42.21
66962;HTU21D;53897;51.126;5.868;2022-07-05T12:56:15;28.75;42.22
66962;HTU21D;53897;51.126;5.868;2022-07-05T12:59:01;28.77;42.23
66962;HTU21D;53897;51.126;5.868;2022-07-05T13:01:32;28.77;42.23
66962;HTU21D;53897;51.126;5.868;2022-07-05T13:09:13;28.78;42.23
66962;HTU21D;53897;51.126;5.868;2022-07-05T13:11:40;28.77;42.25
66962;HTU21D;53897;51.126;5.868;2022-07-05T13:14:06;28.78;42.26
66962;HTU21D;53897;51.126;5.868;2022-07-05T13:16:32;28.78;42.27
66962;HTU21D;53897;51.126;5.868;2022-07-05T13:19:10;28.78;42.28
66962;HTU21D;53897;51.126;5.868;2022-07-05T13:21:37;28.77;42.27
66962;HTU21D;53897;51.126;5.868;2022-07-05T13:24:03;28.79;42.29
66962;HTU21D;53897;51.126;5.868;2022-07-05T13:26:29;28.80;42.31
66962;HTU21D;53897;51.126;5.868;2022-07-05T13:28:55;28.80;42.31
66962;HTU21D;53897;51.126;5.868;2022-07-05T13:31:21;28.82;42.32
66962;HTU21D;53897;51.126;5.868;2022-07-05T13:33:47;28.82;42.32
66962;HTU21D;53897;51.126;5.868;2022-07-05T13:36:12;28.82;42.31
66962;HTU21D;53897;51.126;5.868;2022-07-05T13:38:38;28.84;42.31
66962;HTU21D;53897;51.126;5.868;2022-07-05T13:41:04;28.83;42.31
66962;HTU21D;53897;51.126;5.868;2022-07-05T13:43:30;28.84;42.30
66962;HTU21D;53897;51.126;5.868;2022-07-05T13:45:55;28.84;42.30
66962;HTU21D;53897;51.126;5.868;2022-07-05T13:48:21;28.84;42.31
66962;HTU21D;53897;51.126;5.868;2022-07-05T13:50:47;28.86;42.32
66962;HTU21D;53897;51.126;5.868;2022-07-05T13:53:13;28.86;42.31
66962;HTU21D;53897;51.126;5.868;2022-07-05T13:55:39;28.87;42.32
66962;HTU21D;53897;51.126;5.868;2022-07-05T13:58:04;28.88;42.31
66962;HTU21D;53897;51.126;5.868;2022-07-05T14:00:30;28.88;42.32
66962;HTU21D;53897;51.126;5.868;2022-07-05T14:02:56;28.89;42.31
66962;HTU21D;53897;51.126;5.868;2022-07-05T14:05:21;28.90;42.31
66962;HTU21D;53897;51.126;5.868;2022-07-05T14:07:47;28.90;42.31
66962;HTU21D;53897;51.126;5.868;2022-07-05T14:10:14;28.90;42.31
66962;HTU21D;53897;51.126;5.868;2022-07-05T14:12:40;28.91;42.31
66962;HTU21D;53897;51.126;5.868;2022-07-05T14:15:07;28.90;42.32
66962;HTU21D;53897;51.126;5.868;2022-07-05T14:17:33;28.90;42.32
66962;HTU21D;53897;51.126;5.868;2022-07-05T14:19:59;28.91;42.32
66962;HTU21D;53897;51.126;5.868;2022-07-05T14:22:25;28.91;42.33
66962;HTU21D;53897;51.126;5.868;2022-07-05T14:24:51;28.91;42.32
66962;HTU21D;53897;51.126;5.868;2022-07-05T14:27:17;28.91;42.33
66962;HTU21D;53897;51.126;5.868;2022-07-05T14:29:42;28.92;42.34
66962;HTU21D;53897;51.126;5.868;2022-07-05T14:32:08;28.91;42.34
66962;HTU21D;53897;51.126;5.868;2022-07-05T14:34:34;28.92;42.33
66962;HTU21D;53897;51.126;5.868;2022-07-05T14:37:00;28.91;42.35
66962;HTU21D;53897;51.126;5.868;2022-07-05T14:39:26;28.92;42.35
66962;HTU21D;53897;51.126;5.868;2022-07-05T14:41:52;28.91;42.35
66962;HTU21D;53897;51.126;5.868;2022-07-05T14:44:18;28.91;42.35
66962;HTU21D;53897;51.126;5.868;2022-07-05T14:46:43;28.93;42.36
66962;HTU21D;53897;51.126;5.868;2022-07-05T14:49:09;28.92;42.36
66962;HTU21D;53897;51.126;5.868;2022-07-05T14:51:35;28.94;42.35
66962;HTU21D;53897;51.126;5.868;2022-07-05T14:54:01;28.93;42.36
66962;HTU21D;53897;51.126;5.868;2022-07-05T14:56:26;28.94;42.37
66962;HTU21D;53897;51.126;5.868;2022-07-05T14:58:52;28.94;42.38
66962;HTU21D;53897;51.126;5.868;2022-07-05T15:01:18;28.93;42.39
66962;HTU21D;53897;51.126;5.868;2022-07-05T15:03:44;28.93;42.39
66962;HTU21D;53897;51.126;5.868;2022-07-05T15:06:10;28.94;42.36
66962;HTU21D;53897;51.126;5.868;2022-07-05T15:08:37;28.94;42.36
66962;HTU21D;53897;51.126;5.868;2022-07-05T15:11:03;28.94;42.37
66962;HTU21D;53897;51.126;5.868;2022-07-05T15:13:30;28.94;42.37
66962;HTU21D;53897;51.126;5.868;2022-07-05T15:15:57;28.95;42.37
66962;HTU21D;53897;51.126;5.868;2022-07-05T15:18:23;28.95;42.37
66962;HTU21D;53897;51.126;5.868;2022-07-05T15:20:50;28.94;42.37
66962;HTU21D;53897;51.126;5.868;2022-07-05T15:23:17;28.93;42.38
66962;HTU21D;53897;51.126;5.868;2022-07-05T15:25:44;28.94;42.38
66962;HTU21D;53897;51.126;5.868;2022-07-05T15:28:09;28.95;42.37
66962;HTU21D;53897;51.126;5.868;2022-07-05T15:30:37;28.95;42.37
66962;HTU21D;53897;51.126;5.868;2022-07-05T15:33:03;28.94;42.37
66962;HTU21D;53897;51.126;5.868;2022-07-05T15:35:29;28.97;42.37
66962;HTU21D;53897;51.126;5.868;2022-07-05T15:37:55;28.95;42.39
66962;HTU21D;53897;51.126;5.868;2022-07-05T15:40:21;28.95;42.38
66962;HTU21D;53897;51.126;5.868;2022-07-05T15:42:47;28.95;42.38
66962;HTU21D;53897;51.126;5.868;2022-07-05T15:45:13;28.95;42.37
66962;HTU21D;53897;51.126;5.868;2022-07-05T15:47:39;28.97;42.36
66962;HTU21D;53897;51.126;5.868;2022-07-05T15:50:06;28.95;42.38
66962;HTU21D;53897;51.126;5.868;2022-07-05T15:52:32;28.97;42.38
66962;HTU21D;53897;51.126;5.868;2022-07-05T15:54:57;28.94;42.38